EWG86A EDDL-HEMA
Flight info
| Callsign | EWG86A |
|---|---|
| Flight time | N/A |
| Altitude | 35000 |
| Route | DODEN7Z DODEN Y853 BOMBI DCT DETEV DCT DINKU DCT BESNI DCT GOMIG DCT GOLVA DCT RAVAK DCT NISVA DCT VIT DCT RODIP UN131 PIBOM DCT BELGI UN131 DUGLA/N0437F370 UN131 KULAR UT39 TOMBI DCT DASNI M855 KOMEZ DCT RASDA A16 CVO A727 LXR M999 ELELI V730 MAK |
| Aircraft | A320/M-SDE3FGHIRWY/LB1 |
Departure
| Time | N/A |
|---|---|
| Airport | Düsseldorf Airport (EDDL) |
Arrival
| Time | 2026-05-06 13:20 |
|---|---|
| Airport | Marsa Alam International Airport (HEMA) |
| Time | Latitude | Longitude | Altitude | Speed | Heading |
|---|---|---|---|---|---|
| 2026-05-06 09:08 | 48.87616 | 10.91429 | 34841 ft | 443 kts | 143° |
| 2026-05-06 09:08 | 48.83200 | 10.97875 | 34847 ft | 443 kts | 143° |
| 2026-05-06 09:09 | 48.78758 | 11.04345 | 34829 ft | 442 kts | 143° |
| 2026-05-06 09:09 | 48.74318 | 11.10787 | 34841 ft | 441 kts | 143° |
| 2026-05-06 09:10 | 48.69885 | 11.17197 | 34852 ft | 440 kts | 143° |
| 2026-05-06 09:10 | 48.65505 | 11.23676 | 34852 ft | 443 kts | 137° |
| 2026-05-06 09:11 | 48.62151 | 11.31659 | 34849 ft | 455 kts | 123° |
| 2026-05-06 09:11 | 48.59272 | 11.40121 | 34826 ft | 455 kts | 124° |
| 2026-05-06 09:12 | 48.56357 | 11.48615 | 34832 ft | 455 kts | 124° |
| 2026-05-06 09:12 | 48.53439 | 11.57081 | 34830 ft | 455 kts | 124° |
| 2026-05-06 09:13 | 48.50517 | 11.65559 | 34838 ft | 455 kts | 124° |
| 2026-05-06 09:13 | 48.47595 | 11.74011 | 34804 ft | 454 kts | 124° |
| 2026-05-06 09:14 | 48.44661 | 11.82453 | 34815 ft | 454 kts | 124° |
| 2026-05-06 09:14 | 48.41725 | 11.90880 | 34833 ft | 454 kts | 124° |
| 2026-05-06 09:15 | 48.38783 | 11.99306 | 34829 ft | 454 kts | 125° |
| 2026-05-06 09:15 | 48.35834 | 12.07717 | 34833 ft | 454 kts | 125° |
| 2026-05-06 09:16 | 48.32895 | 12.16065 | 34806 ft | 454 kts | 125° |
| 2026-05-06 09:16 | 48.29932 | 12.24463 | 34809 ft | 455 kts | 125° |
| 2026-05-06 09:17 | 48.26974 | 12.32822 | 34812 ft | 455 kts | 125° |
| 2026-05-06 09:17 | 48.24006 | 12.41205 | 34817 ft | 455 kts | 125° |
| 2026-05-06 09:18 | 48.21030 | 12.49573 | 34816 ft | 455 kts | 125° |
| 2026-05-06 09:18 | 48.18038 | 12.57926 | 34820 ft | 454 kts | 125° |
| 2026-05-06 09:19 | 48.15034 | 12.66274 | 34823 ft | 454 kts | 125° |
| 2026-05-06 09:19 | 48.12309 | 12.72923 | 34823 ft | 448 kts | 131° |
| 2026-05-06 09:20 | 48.08205 | 12.81861 | 34819 ft | 448 kts | 131° |
| 2026-05-06 09:20 | 48.05244 | 12.88298 | 34791 ft | 448 kts | 132° |
| 2026-05-06 09:21 | 48.01701 | 12.95972 | 34797 ft | 449 kts | 132° |
| 2026-05-06 09:21 | 47.98173 | 13.03596 | 34801 ft | 449 kts | 132° |
| 2026-05-06 09:22 | 47.94609 | 13.11260 | 34807 ft | 449 kts | 132° |
| 2026-05-06 09:22 | 47.91039 | 13.18912 | 34811 ft | 449 kts | 132° |
| 2026-05-06 09:23 | 47.87468 | 13.26566 | 34781 ft | 450 kts | 132° |
| 2026-05-06 09:23 | 47.83891 | 13.34224 | 34793 ft | 450 kts | 132° |
| 2026-05-06 09:24 | 47.80299 | 13.41876 | 34798 ft | 451 kts | 132° |
| 2026-05-06 09:24 | 47.76696 | 13.49515 | 34806 ft | 451 kts | 132° |
| 2026-05-06 09:25 | 47.73104 | 13.57111 | 34813 ft | 452 kts | 132° |
| 2026-05-06 09:25 | 47.69475 | 13.64775 | 34796 ft | 452 kts | 133° |
| 2026-05-06 09:26 | 47.65843 | 13.72417 | 34813 ft | 453 kts | 133° |
| 2026-05-06 09:26 | 47.62217 | 13.80042 | 34823 ft | 453 kts | 133° |
| 2026-05-06 09:27 | 47.58577 | 13.87682 | 34830 ft | 454 kts | 133° |
| 2026-05-06 09:27 | 47.54943 | 13.95271 | 34800 ft | 454 kts | 133° |
| 2026-05-06 09:28 | 47.51272 | 14.02902 | 34831 ft | 455 kts | 133° |
| 2026-05-06 09:28 | 47.47593 | 14.10535 | 34836 ft | 455 kts | 132° |
| 2026-05-06 09:29 | 47.43910 | 14.18170 | 34865 ft | 456 kts | 133° |
| 2026-05-06 09:29 | 47.40217 | 14.25789 | 34870 ft | 456 kts | 133° |
| 2026-05-06 09:30 | 47.36537 | 14.33376 | 34852 ft | 457 kts | 132° |
| 2026-05-06 09:30 | 47.32830 | 14.40994 | 34876 ft | 458 kts | 133° |
| 2026-05-06 09:31 | 47.29099 | 14.48623 | 34874 ft | 459 kts | 133° |
| 2026-05-06 09:31 | 47.25361 | 14.56263 | 34883 ft | 459 kts | 133° |
| 2026-05-06 09:32 | 47.21621 | 14.63889 | 34866 ft | 460 kts | 132° |
| 2026-05-06 09:32 | 47.17866 | 14.71523 | 34865 ft | 461 kts | 133° |
| 2026-05-06 09:33 | 47.14108 | 14.79125 | 34871 ft | 462 kts | 133° |
| 2026-05-06 09:33 | 47.10323 | 14.86776 | 34886 ft | 463 kts | 133° |
| 2026-05-06 09:34 | 47.06529 | 14.94425 | 34901 ft | 463 kts | 133° |
| 2026-05-06 09:34 | 47.02724 | 15.02077 | 34873 ft | 464 kts | 132° |
| 2026-05-06 09:35 | 46.98924 | 15.09680 | 34868 ft | 465 kts | 132° |
| 2026-05-06 09:35 | 46.95090 | 15.17329 | 34876 ft | 466 kts | 132° |
| 2026-05-06 09:36 | 46.91253 | 15.24981 | 34876 ft | 466 kts | 132° |
| 2026-05-06 09:36 | 46.87409 | 15.32623 | 34868 ft | 466 kts | 131° |
| 2026-05-06 09:37 | 46.83584 | 15.40211 | 34877 ft | 466 kts | 132° |
| 2026-05-06 09:37 | 46.79732 | 15.47833 | 34881 ft | 466 kts | 132° |
| 2026-05-06 09:38 | 46.75877 | 15.55434 | 34890 ft | 465 kts | 132° |
| 2026-05-06 09:38 | 46.72008 | 15.63018 | 34883 ft | 465 kts | 131° |
| 2026-05-06 09:39 | 46.68226 | 15.70690 | 34902 ft | 467 kts | 128° |
| 2026-05-06 09:39 | 46.64691 | 15.78579 | 34919 ft | 469 kts | 127° |
| 2026-05-06 09:40 | 46.61163 | 15.86563 | 34928 ft | 468 kts | 128° |
| 2026-05-06 09:40 | 46.55761 | 15.98388 | 34915 ft | 467 kts | 128° |
| 2026-05-06 09:41 | 46.52126 | 16.06227 | 34916 ft | 467 kts | 128° |
| 2026-05-06 09:41 | 46.48502 | 16.14056 | 34925 ft | 467 kts | 128° |
| 2026-05-06 09:42 | 46.44903 | 16.21842 | 34925 ft | 467 kts | 128° |
| 2026-05-06 09:42 | 46.41277 | 16.29666 | 34905 ft | 467 kts | 128° |
| 2026-05-06 09:43 | 46.37640 | 16.37483 | 34910 ft | 467 kts | 128° |
| 2026-05-06 09:43 | 46.34003 | 16.45288 | 34925 ft | 467 kts | 128° |
| 2026-05-06 09:44 | 46.30352 | 16.53080 | 34927 ft | 467 kts | 129° |
| 2026-05-06 09:44 | 46.26712 | 16.60807 | 34906 ft | 467 kts | 128° |
| 2026-05-06 09:45 | 46.23053 | 16.68592 | 34927 ft | 467 kts | 128° |
| 2026-05-06 09:45 | 46.19400 | 16.76360 | 34936 ft | 467 kts | 128° |
| 2026-05-06 09:46 | 46.15736 | 16.84108 | 34943 ft | 467 kts | 129° |
| 2026-05-06 09:46 | 46.12059 | 16.91837 | 34938 ft | 467 kts | 129° |
| 2026-05-06 09:47 | 46.08405 | 16.99503 | 34932 ft | 467 kts | 128° |
| 2026-05-06 09:47 | 46.04729 | 17.07210 | 34939 ft | 466 kts | 128° |
| 2026-05-06 09:48 | 46.01058 | 17.14909 | 34944 ft | 466 kts | 128° |
| 2026-05-06 09:48 | 45.97379 | 17.22592 | 34951 ft | 466 kts | 129° |
| 2026-05-06 09:49 | 45.93688 | 17.30243 | 34940 ft | 466 kts | 129° |
| 2026-05-06 09:49 | 45.89991 | 17.37884 | 34948 ft | 465 kts | 129° |
| 2026-05-06 09:50 | 45.86320 | 17.45466 | 34955 ft | 465 kts | 129° |
| 2026-05-06 09:50 | 45.82622 | 17.53103 | 34959 ft | 466 kts | 129° |
| 2026-05-06 09:51 | 45.78917 | 17.60742 | 34940 ft | 466 kts | 128° |
| 2026-05-06 09:51 | 45.75202 | 17.68366 | 34945 ft | 466 kts | 129° |
| 2026-05-06 09:52 | 45.71511 | 17.75916 | 34952 ft | 466 kts | 129° |
| 2026-05-06 09:52 | 45.67788 | 17.83506 | 34959 ft | 466 kts | 129° |
| 2026-05-06 09:53 | 45.64056 | 17.91095 | 34952 ft | 466 kts | 129° |
| 2026-05-06 09:53 | 45.60311 | 17.98696 | 34947 ft | 467 kts | 129° |
| 2026-05-06 09:54 | 45.56570 | 18.06247 | 34950 ft | 468 kts | 129° |
| 2026-05-06 09:54 | 45.52807 | 18.13835 | 34955 ft | 468 kts | 129° |
| 2026-05-06 09:55 | 45.49044 | 18.21423 | 34934 ft | 469 kts | 129° |
| 2026-05-06 09:55 | 45.45269 | 18.29015 | 34943 ft | 469 kts | 129° |
| 2026-05-06 09:56 | 45.41483 | 18.36590 | 34953 ft | 469 kts | 129° |
| 2026-05-06 09:56 | 45.37706 | 18.44112 | 34964 ft | 469 kts | 129° |
| 2026-05-06 09:57 | 45.33905 | 18.51676 | 34959 ft | 469 kts | 129° |
| 2026-05-06 09:57 | 45.30106 | 18.59226 | 34963 ft | 469 kts | 129° |
| 2026-05-06 09:58 | 45.26300 | 18.66775 | 34972 ft | 469 kts | 129° |
| 2026-05-06 09:58 | 45.22515 | 18.74264 | 34975 ft | 469 kts | 129° |
| 2026-05-06 09:59 | 45.18700 | 18.81784 | 34970 ft | 469 kts | 128° |
| 2026-05-06 09:59 | 45.14880 | 18.89291 | 34979 ft | 469 kts | 128° |
| 2026-05-06 10:00 | 45.11054 | 18.96790 | 34988 ft | 469 kts | 129° |
| 2026-05-06 10:00 | 45.07246 | 19.04227 | 34996 ft | 469 kts | 129° |
| 2026-05-06 10:01 | 45.03408 | 19.11704 | 34999 ft | 469 kts | 129° |
| 2026-05-06 10:01 | 44.99572 | 19.19166 | 34997 ft | 469 kts | 129° |
| 2026-05-06 10:02 | 44.95735 | 19.26615 | 35003 ft | 469 kts | 129° |
| 2026-05-06 10:02 | 44.91908 | 19.34014 | 34990 ft | 469 kts | 129° |
| 2026-05-06 10:03 | 44.88061 | 19.41434 | 34978 ft | 469 kts | 129° |
| 2026-05-06 10:03 | 44.84202 | 19.48855 | 34985 ft | 469 kts | 129° |
| 2026-05-06 10:04 | 44.80363 | 19.56241 | 34995 ft | 469 kts | 129° |
| 2026-05-06 10:04 | 44.76486 | 19.63666 | 35003 ft | 469 kts | 129° |
| 2026-05-06 10:05 | 44.72615 | 19.71063 | 34990 ft | 470 kts | 129° |
| 2026-05-06 10:05 | 44.68730 | 19.78463 | 34988 ft | 470 kts | 129° |
| 2026-05-06 10:06 | 44.64862 | 19.85797 | 34998 ft | 470 kts | 129° |
| 2026-05-06 10:06 | 44.60965 | 19.93182 | 35004 ft | 470 kts | 129° |
| 2026-05-06 10:07 | 44.57068 | 20.00570 | 34996 ft | 470 kts | 129° |
| 2026-05-06 10:07 | 44.53164 | 20.07941 | 34992 ft | 470 kts | 129° |
| 2026-05-06 10:08 | 44.49264 | 20.15259 | 34998 ft | 470 kts | 129° |
| 2026-05-06 10:08 | 44.46007 | 20.21365 | 35001 ft | 470 kts | 129° |
| 2026-05-06 10:09 | 44.42083 | 20.28706 | 34998 ft | 470 kts | 129° |
| 2026-05-06 10:09 | 44.38151 | 20.36046 | 35000 ft | 471 kts | 129° |
| 2026-05-06 10:10 | 44.34247 | 20.43327 | 35000 ft | 471 kts | 129° |
| 2026-05-06 10:10 | 44.30310 | 20.50645 | 35000 ft | 471 kts | 129° |
| 2026-05-06 10:11 | 44.26363 | 20.57956 | 34995 ft | 471 kts | 128° |
| 2026-05-06 10:11 | 44.22406 | 20.65278 | 34997 ft | 471 kts | 129° |
| 2026-05-06 10:12 | 44.18450 | 20.72567 | 35002 ft | 472 kts | 129° |
| 2026-05-06 10:12 | 44.14511 | 20.79814 | 35005 ft | 472 kts | 129° |
| 2026-05-06 10:13 | 44.10537 | 20.87105 | 35011 ft | 472 kts | 128° |
| 2026-05-06 10:13 | 44.06557 | 20.94391 | 35014 ft | 473 kts | 128° |
| 2026-05-06 10:14 | 44.02572 | 21.01672 | 35019 ft | 473 kts | 128° |
| 2026-05-06 10:14 | 43.98584 | 21.08933 | 35020 ft | 473 kts | 128° |
| 2026-05-06 10:15 | 43.94589 | 21.16192 | 35012 ft | 473 kts | 128° |
| 2026-05-06 10:15 | 43.90607 | 21.23397 | 35013 ft | 473 kts | 128° |
| 2026-05-06 10:16 | 43.86601 | 21.30640 | 35013 ft | 473 kts | 128° |
| 2026-05-06 10:16 | 43.82591 | 21.37872 | 35014 ft | 473 kts | 128° |
| 2026-05-06 10:17 | 43.78577 | 21.45091 | 35017 ft | 473 kts | 128° |
| 2026-05-06 10:17 | 43.74554 | 21.52308 | 35013 ft | 473 kts | 128° |
| 2026-05-06 10:18 | 43.70550 | 21.59463 | 35018 ft | 473 kts | 128° |
| 2026-05-06 10:18 | 43.66486 | 21.66627 | 35011 ft | 473 kts | 129° |
| 2026-05-06 10:19 | 43.62278 | 21.73634 | 35013 ft | 474 kts | 131° |
| 2026-05-06 10:19 | 43.58014 | 21.80594 | 35014 ft | 475 kts | 131° |
| 2026-05-06 10:20 | 43.53798 | 21.87535 | 35016 ft | 475 kts | 130° |
| 2026-05-06 10:20 | 43.49571 | 21.94544 | 35017 ft | 475 kts | 130° |
| 2026-05-06 10:21 | 43.45343 | 22.01547 | 35020 ft | 475 kts | 130° |
| 2026-05-06 10:21 | 43.41099 | 22.08537 | 35022 ft | 476 kts | 130° |
| 2026-05-06 10:22 | 43.36846 | 22.15535 | 35015 ft | 476 kts | 131° |
| 2026-05-06 10:22 | 43.32625 | 22.22462 | 35038 ft | 476 kts | 130° |
| 2026-05-06 10:23 | 43.28350 | 22.29445 | 35041 ft | 477 kts | 130° |
| 2026-05-06 10:23 | 43.24065 | 22.36424 | 35043 ft | 478 kts | 130° |
| 2026-05-06 10:24 | 43.19772 | 22.43408 | 35048 ft | 478 kts | 130° |
| 2026-05-06 10:24 | 43.15471 | 22.50390 | 35046 ft | 480 kts | 130° |
| 2026-05-06 10:25 | 43.11158 | 22.57379 | 35046 ft | 480 kts | 130° |
| 2026-05-06 10:25 | 43.06842 | 22.64358 | 35044 ft | 480 kts | 130° |
| 2026-05-06 10:26 | 43.02515 | 22.71328 | 35057 ft | 480 kts | 130° |
| 2026-05-06 10:26 | 42.98181 | 22.78291 | 35046 ft | 481 kts | 131° |
| 2026-05-06 10:27 | 42.93351 | 22.84538 | 35046 ft | 482 kts | 139° |
| 2026-05-06 10:27 | 42.88342 | 22.90623 | 35047 ft | 482 kts | 138° |
| 2026-05-06 10:28 | 42.83329 | 22.96719 | 35048 ft | 483 kts | 138° |
| 2026-05-06 10:28 | 42.78303 | 23.02813 | 35045 ft | 483 kts | 138° |
| 2026-05-06 10:29 | 42.73263 | 23.08881 | 35056 ft | 484 kts | 138° |
| 2026-05-06 10:29 | 42.68224 | 23.14961 | 35063 ft | 484 kts | 138° |
| 2026-05-06 10:30 | 42.63186 | 23.21032 | 35068 ft | 485 kts | 138° |
| 2026-05-06 10:30 | 42.58116 | 23.27101 | 35063 ft | 486 kts | 138° |
| 2026-05-06 10:31 | 42.53105 | 23.33174 | 35063 ft | 487 kts | 137° |
| 2026-05-06 10:31 | 42.48163 | 23.39447 | 35063 ft | 487 kts | 136° |
| 2026-05-06 10:32 | 42.43249 | 23.45748 | 35064 ft | 487 kts | 136° |
| 2026-05-06 10:32 | 42.38283 | 23.52027 | 35054 ft | 488 kts | 136° |
| 2026-05-06 10:33 | 42.33291 | 23.58268 | 35068 ft | 489 kts | 136° |
| 2026-05-06 10:33 | 42.28291 | 23.64495 | 35063 ft | 489 kts | 136° |
| 2026-05-06 10:34 | 42.23287 | 23.70733 | 35068 ft | 490 kts | 136° |
| 2026-05-06 10:34 | 42.18286 | 23.76966 | 35068 ft | 490 kts | 136° |
| 2026-05-06 10:35 | 42.13275 | 23.83192 | 35062 ft | 490 kts | 136° |
| 2026-05-06 10:35 | 42.08259 | 23.89416 | 35054 ft | 490 kts | 136° |
| 2026-05-06 10:36 | 42.03235 | 23.95625 | 35064 ft | 490 kts | 136° |
| 2026-05-06 10:36 | 41.98204 | 24.01818 | 35053 ft | 490 kts | 136° |
| 2026-05-06 10:37 | 41.93174 | 24.08007 | 35065 ft | 490 kts | 136° |
| 2026-05-06 10:37 | 41.88139 | 24.14183 | 35067 ft | 490 kts | 136° |
| 2026-05-06 10:38 | 41.83101 | 24.20353 | 35067 ft | 490 kts | 136° |
| 2026-05-06 10:38 | 41.78068 | 24.26519 | 35051 ft | 490 kts | 136° |
| 2026-05-06 10:39 | 41.73027 | 24.32665 | 35050 ft | 490 kts | 136° |
| 2026-05-06 10:39 | 41.67977 | 24.38799 | 35053 ft | 490 kts | 136° |
| 2026-05-06 10:40 | 41.62965 | 24.44892 | 35065 ft | 490 kts | 136° |
| 2026-05-06 10:40 | 41.57921 | 24.51011 | 35064 ft | 490 kts | 136° |
| 2026-05-06 10:41 | 41.52879 | 24.57114 | 35065 ft | 489 kts | 136° |
| 2026-05-06 10:41 | 41.47829 | 24.63201 | 35055 ft | 489 kts | 136° |
| 2026-05-06 10:42 | 41.42780 | 24.69277 | 35052 ft | 489 kts | 136° |
| 2026-05-06 10:42 | 41.37714 | 24.75332 | 35054 ft | 489 kts | 137° |
| 2026-05-06 10:43 | 41.32618 | 24.81352 | 35054 ft | 490 kts | 137° |
| 2026-05-06 10:44 | 41.24966 | 24.90360 | 35068 ft | 490 kts | 137° |
| 2026-05-06 10:44 | 41.19865 | 24.96358 | 35039 ft | 490 kts | 137° |
| 2026-05-06 10:45 | 41.14758 | 25.02365 | 35037 ft | 491 kts | 137° |
| 2026-05-06 10:45 | 41.09641 | 25.08368 | 35049 ft | 492 kts | 137° |
| 2026-05-06 10:46 | 41.04513 | 25.14375 | 35072 ft | 492 kts | 137° |
| 2026-05-06 10:46 | 40.99376 | 25.20361 | 35077 ft | 492 kts | 137° |
| 2026-05-06 10:47 | 40.94236 | 25.26338 | 35070 ft | 493 kts | 137° |
| 2026-05-06 10:47 | 40.89245 | 25.32452 | 35075 ft | 491 kts | 130° |
| 2026-05-06 10:48 | 40.84633 | 25.39107 | 35104 ft | 491 kts | 131° |
| 2026-05-06 10:48 | 40.80002 | 25.45719 | 35102 ft | 490 kts | 131° |
| 2026-05-06 10:49 | 40.75377 | 25.52322 | 35101 ft | 490 kts | 131° |
| 2026-05-06 10:49 | 40.70759 | 25.58917 | 35099 ft | 489 kts | 131° |
| 2026-05-06 10:50 | 40.66132 | 25.65491 | 35113 ft | 489 kts | 131° |
| 2026-05-06 10:50 | 40.61512 | 25.72055 | 35103 ft | 488 kts | 131° |
| 2026-05-06 10:51 | 40.56890 | 25.78601 | 35105 ft | 488 kts | 131° |
| 2026-05-06 10:51 | 40.52266 | 25.85129 | 35107 ft | 488 kts | 131° |
| 2026-05-06 10:52 | 40.47684 | 25.91650 | 35112 ft | 487 kts | 130° |
| 2026-05-06 10:52 | 40.43224 | 25.98342 | 35119 ft | 487 kts | 129° |
| 2026-05-06 10:53 | 40.38803 | 26.05076 | 35116 ft | 486 kts | 129° |
| 2026-05-06 10:53 | 40.34353 | 26.11753 | 35109 ft | 486 kts | 129° |
| 2026-05-06 10:54 | 40.29871 | 26.18403 | 35100 ft | 487 kts | 130° |
| 2026-05-06 10:54 | 40.26133 | 26.23925 | 35101 ft | 487 kts | 130° |
| 2026-05-06 10:55 | 40.20909 | 26.31637 | 35113 ft | 487 kts | 130° |
| 2026-05-06 10:55 | 40.16417 | 26.38264 | 35111 ft | 487 kts | 130° |
| 2026-05-06 10:56 | 40.11886 | 26.44849 | 35111 ft | 487 kts | 132° |
| 2026-05-06 10:56 | 40.07123 | 26.51077 | 35102 ft | 487 kts | 135° |
| 2026-05-06 10:57 | 40.02200 | 26.57182 | 35115 ft | 488 kts | 135° |
| 2026-05-06 10:57 | 39.97310 | 26.63328 | 35105 ft | 488 kts | 134° |
| 2026-05-06 10:58 | 39.93293 | 26.68477 | 35105 ft | 487 kts | 134° |
| 2026-05-06 10:58 | 39.88469 | 26.74685 | 35105 ft | 488 kts | 134° |
| 2026-05-06 10:59 | 39.83619 | 26.80878 | 35100 ft | 487 kts | 134° |
| 2026-05-06 10:59 | 39.78761 | 26.87032 | 35123 ft | 487 kts | 134° |
| 2026-05-06 11:00 | 39.73896 | 26.93165 | 35113 ft | 487 kts | 135° |
| 2026-05-06 11:00 | 39.68967 | 26.99205 | 35113 ft | 487 kts | 136° |
| 2026-05-06 11:01 | 39.64009 | 27.05215 | 35114 ft | 488 kts | 136° |
| 2026-05-06 11:01 | 39.59096 | 27.11197 | 35094 ft | 488 kts | 135° |
| 2026-05-06 11:02 | 39.54161 | 27.17236 | 35095 ft | 488 kts | 135° |
| 2026-05-06 11:02 | 39.49315 | 27.23358 | 35115 ft | 486 kts | 129° |
| 2026-05-06 11:03 | 39.45015 | 27.30098 | 35110 ft | 484 kts | 128° |
| 2026-05-06 11:03 | 39.40712 | 27.36843 | 35349 ft | 487 kts | 128° |
| 2026-05-06 11:03 | 39.38552 | 27.40217 | 35541 ft | 487 kts | 128° |
| 2026-05-06 11:04 | 39.36391 | 27.43591 | 35740 ft | 487 kts | 128° |
| 2026-05-06 11:04 | 39.34232 | 27.46954 | 35944 ft | 486 kts | 128° |
| 2026-05-06 11:04 | 39.32070 | 27.50315 | 36171 ft | 485 kts | 129° |
| 2026-05-06 11:04 | 39.29917 | 27.53664 | 36371 ft | 484 kts | 129° |
| 2026-05-06 11:05 | 39.27768 | 27.57013 | 36556 ft | 484 kts | 129° |
| 2026-05-06 11:05 | 39.25622 | 27.60354 | 36729 ft | 484 kts | 129° |
| 2026-05-06 11:05 | 39.23472 | 27.63692 | 36891 ft | 484 kts | 129° |
| 2026-05-06 11:05 | 39.21321 | 27.67025 | 37062 ft | 483 kts | 129° |
| 2026-05-06 11:06 | 39.19167 | 27.70356 | 37086 ft | 484 kts | 129° |
| 2026-05-06 11:06 | 39.14856 | 27.77000 | 37087 ft | 483 kts | 129° |
| 2026-05-06 11:07 | 39.10546 | 27.83658 | 37090 ft | 485 kts | 129° |
| 2026-05-06 11:07 | 39.06224 | 27.90328 | 37090 ft | 485 kts | 129° |
| 2026-05-06 11:08 | 39.01889 | 27.96971 | 37088 ft | 485 kts | 129° |
| 2026-05-06 11:08 | 38.97549 | 28.03612 | 37094 ft | 485 kts | 129° |
| 2026-05-06 11:09 | 38.93242 | 28.10201 | 37112 ft | 484 kts | 129° |
| 2026-05-06 11:09 | 38.88879 | 28.16863 | 37109 ft | 484 kts | 129° |
| 2026-05-06 11:10 | 38.84544 | 28.23476 | 37105 ft | 484 kts | 129° |
| 2026-05-06 11:10 | 38.80235 | 28.30034 | 37091 ft | 484 kts | 129° |
| 2026-05-06 11:11 | 38.75889 | 28.36632 | 37088 ft | 485 kts | 129° |
| 2026-05-06 11:11 | 38.71526 | 28.43225 | 37103 ft | 485 kts | 130° |
| 2026-05-06 11:12 | 38.67158 | 28.49818 | 37098 ft | 486 kts | 130° |
| 2026-05-06 11:12 | 38.62788 | 28.56409 | 37100 ft | 486 kts | 130° |
| 2026-05-06 11:13 | 38.58299 | 28.62859 | 37097 ft | 485 kts | 138° |
| 2026-05-06 11:13 | 38.52925 | 28.68040 | 37115 ft | 484 kts | 146° |
| 2026-05-06 11:14 | 38.47405 | 28.72968 | 37096 ft | 484 kts | 146° |
| 2026-05-06 11:14 | 38.41888 | 28.77901 | 37096 ft | 484 kts | 146° |
| 2026-05-06 11:15 | 38.36370 | 28.82835 | 37098 ft | 485 kts | 146° |
| 2026-05-06 11:15 | 38.30844 | 28.87758 | 37100 ft | 485 kts | 146° |
| 2026-05-06 11:16 | 38.25316 | 28.92671 | 37102 ft | 485 kts | 146° |
| 2026-05-06 11:16 | 38.19786 | 28.97580 | 37105 ft | 485 kts | 146° |
| 2026-05-06 11:17 | 38.14242 | 29.02496 | 37099 ft | 486 kts | 146° |
| 2026-05-06 11:17 | 38.08691 | 29.07406 | 37096 ft | 487 kts | 146° |
| 2026-05-06 11:18 | 38.03127 | 29.12306 | 37096 ft | 487 kts | 146° |
| 2026-05-06 11:18 | 37.97558 | 29.17204 | 37098 ft | 487 kts | 146° |
| 2026-05-06 11:19 | 37.91987 | 29.22100 | 37085 ft | 487 kts | 146° |
| 2026-05-06 11:19 | 37.86413 | 29.26995 | 37104 ft | 487 kts | 147° |
| 2026-05-06 11:20 | 37.80841 | 29.31878 | 37109 ft | 487 kts | 147° |
| 2026-05-06 11:20 | 37.75263 | 29.36751 | 37121 ft | 487 kts | 147° |
| 2026-05-06 11:21 | 37.69729 | 29.41590 | 37121 ft | 487 kts | 147° |
| 2026-05-06 11:21 | 37.64116 | 29.46487 | 37111 ft | 487 kts | 147° |
| 2026-05-06 11:22 | 37.58577 | 29.51305 | 37114 ft | 487 kts | 147° |
| 2026-05-06 11:22 | 37.52999 | 29.56144 | 37118 ft | 487 kts | 147° |
| 2026-05-06 11:23 | 37.47429 | 29.60977 | 37114 ft | 486 kts | 147° |
| 2026-05-06 11:23 | 37.41858 | 29.65795 | 37109 ft | 486 kts | 147° |
| 2026-05-06 11:24 | 37.36287 | 29.70602 | 37089 ft | 485 kts | 147° |
| 2026-05-06 11:24 | 37.30722 | 29.75403 | 37097 ft | 485 kts | 147° |
| 2026-05-06 11:25 | 37.25161 | 29.80193 | 37095 ft | 485 kts | 147° |
| 2026-05-06 11:25 | 37.19601 | 29.84980 | 37100 ft | 485 kts | 147° |
| 2026-05-06 11:26 | 37.14037 | 29.89751 | 37094 ft | 484 kts | 148° |
| 2026-05-06 11:26 | 37.08480 | 29.94508 | 37073 ft | 484 kts | 148° |
| 2026-05-06 11:27 | 37.02919 | 29.99273 | 37074 ft | 484 kts | 148° |
| 2026-05-06 11:27 | 36.97354 | 30.04038 | 37074 ft | 485 kts | 148° |
| 2026-05-06 11:28 | 36.91788 | 30.08788 | 37064 ft | 485 kts | 148° |
| 2026-05-06 11:28 | 36.86213 | 30.13531 | 37070 ft | 485 kts | 148° |
| 2026-05-06 11:29 | 36.80635 | 30.18285 | 37052 ft | 486 kts | 148° |
| 2026-05-06 11:29 | 36.75041 | 30.23031 | 37050 ft | 487 kts | 148° |
| 2026-05-06 11:30 | 36.69423 | 30.27777 | 37051 ft | 488 kts | 148° |
| 2026-05-06 11:30 | 36.63803 | 30.32519 | 37056 ft | 488 kts | 148° |
| 2026-05-06 11:31 | 36.58176 | 30.37259 | 37061 ft | 489 kts | 148° |
| 2026-05-06 11:31 | 36.52545 | 30.41993 | 37079 ft | 489 kts | 148° |
| 2026-05-06 11:32 | 36.46914 | 30.46722 | 37072 ft | 488 kts | 148° |
| 2026-05-06 11:32 | 36.41295 | 30.51446 | 37071 ft | 488 kts | 148° |
| 2026-05-06 11:33 | 36.35676 | 30.56156 | 37076 ft | 487 kts | 148° |
| 2026-05-06 11:33 | 36.30050 | 30.60850 | 37075 ft | 487 kts | 148° |
| 2026-05-06 11:34 | 36.24422 | 30.65530 | 37064 ft | 487 kts | 148° |
| 2026-05-06 11:34 | 36.18801 | 30.70200 | 37076 ft | 486 kts | 148° |
| 2026-05-06 11:35 | 36.13192 | 30.74865 | 37082 ft | 486 kts | 148° |
| 2026-05-06 11:35 | 36.07551 | 30.79436 | 37077 ft | 483 kts | 155° |
| 2026-05-06 11:36 | 36.01337 | 30.82288 | 37067 ft | 473 kts | 174° |
| 2026-05-06 11:36 | 35.94864 | 30.82999 | 37065 ft | 466 kts | 182° |
| 2026-05-06 11:37 | 35.88416 | 30.83389 | 37068 ft | 467 kts | 182° |
| 2026-05-06 11:37 | 35.81920 | 30.83791 | 37069 ft | 467 kts | 182° |
| 2026-05-06 11:38 | 35.75423 | 30.84182 | 37049 ft | 468 kts | 182° |
| 2026-05-06 11:38 | 35.68921 | 30.84565 | 37057 ft | 468 kts | 182° |
| 2026-05-06 11:39 | 35.62414 | 30.84952 | 37061 ft | 468 kts | 182° |
| 2026-05-06 11:39 | 35.55906 | 30.85264 | 37047 ft | 467 kts | 184° |
| 2026-05-06 11:40 | 35.49411 | 30.85442 | 37057 ft | 467 kts | 184° |
| 2026-05-06 11:40 | 35.42907 | 30.85622 | 37066 ft | 467 kts | 184° |
| 2026-05-06 11:41 | 35.36403 | 30.85839 | 37076 ft | 468 kts | 184° |
| 2026-05-06 11:41 | 35.29905 | 30.86074 | 37062 ft | 467 kts | 184° |
| 2026-05-06 11:42 | 35.23407 | 30.86292 | 37076 ft | 467 kts | 184° |
| 2026-05-06 11:42 | 35.16915 | 30.86505 | 37082 ft | 467 kts | 184° |
| 2026-05-06 11:43 | 35.10423 | 30.86721 | 37067 ft | 466 kts | 184° |
| 2026-05-06 11:43 | 35.03940 | 30.86938 | 37080 ft | 466 kts | 184° |
| 2026-05-06 11:44 | 34.95320 | 30.87219 | 37085 ft | 466 kts | 184° |
| 2026-05-06 11:44 | 34.88846 | 30.87432 | 37076 ft | 465 kts | 184° |
| 2026-05-06 11:45 | 34.82377 | 30.87652 | 37096 ft | 465 kts | 184° |
| 2026-05-06 11:45 | 34.74868 | 30.87901 | 37099 ft | 464 kts | 184° |
| 2026-05-06 11:46 | 34.69458 | 30.88070 | 37074 ft | 464 kts | 184° |
| 2026-05-06 11:46 | 34.63017 | 30.88278 | 37094 ft | 463 kts | 184° |
| 2026-05-06 11:47 | 34.56573 | 30.88539 | 37099 ft | 463 kts | 184° |
| 2026-05-06 11:47 | 34.50136 | 30.88879 | 37100 ft | 463 kts | 183° |
| 2026-05-06 11:48 | 34.43713 | 30.89224 | 37080 ft | 462 kts | 184° |
| 2026-05-06 11:48 | 34.37299 | 30.89550 | 37092 ft | 461 kts | 184° |
| 2026-05-06 11:49 | 34.30893 | 30.89859 | 37098 ft | 461 kts | 184° |
| 2026-05-06 11:49 | 34.24532 | 30.90165 | 37100 ft | 460 kts | 184° |
| 2026-05-06 11:50 | 34.18137 | 30.90446 | 37105 ft | 460 kts | 184° |
| 2026-05-06 11:50 | 34.11745 | 30.90704 | 37104 ft | 459 kts | 184° |
| 2026-05-06 11:51 | 34.05354 | 30.90968 | 37099 ft | 459 kts | 184° |
| 2026-05-06 11:51 | 33.98968 | 30.91242 | 37080 ft | 459 kts | 184° |
| 2026-05-06 11:52 | 33.92591 | 30.91523 | 37094 ft | 458 kts | 184° |
| 2026-05-06 11:52 | 33.86222 | 30.91792 | 37096 ft | 458 kts | 184° |
| 2026-05-06 11:53 | 33.79859 | 30.92062 | 37099 ft | 457 kts | 184° |
| 2026-05-06 11:53 | 33.73505 | 30.92336 | 37085 ft | 457 kts | 184° |
| 2026-05-06 11:54 | 33.67151 | 30.92601 | 37088 ft | 457 kts | 184° |
| 2026-05-06 11:54 | 33.60799 | 30.92871 | 37093 ft | 457 kts | 184° |
| 2026-05-06 11:55 | 33.54446 | 30.93132 | 37070 ft | 457 kts | 185° |
| 2026-05-06 11:55 | 33.48092 | 30.93390 | 37088 ft | 457 kts | 185° |
| 2026-05-06 11:56 | 33.41743 | 30.93653 | 37092 ft | 457 kts | 184° |
| 2026-05-06 11:56 | 33.35390 | 30.93933 | 37101 ft | 457 kts | 184° |
| 2026-05-06 11:57 | 33.29041 | 30.94216 | 37086 ft | 456 kts | 185° |
| 2026-05-06 11:57 | 33.22701 | 30.94473 | 37087 ft | 456 kts | 185° |
| 2026-05-06 11:58 | 33.16360 | 30.94731 | 37091 ft | 456 kts | 185° |
| 2026-05-06 11:58 | 33.10020 | 30.94998 | 37094 ft | 456 kts | 184° |
| 2026-05-06 11:59 | 33.03667 | 30.95541 | 37080 ft | 459 kts | 181° |
| 2026-05-06 11:59 | 32.97308 | 30.96352 | 37095 ft | 460 kts | 180° |
| 2026-05-06 12:00 | 32.90952 | 30.97147 | 37096 ft | 459 kts | 181° |
| 2026-05-06 12:00 | 32.84595 | 30.97868 | 37075 ft | 458 kts | 181° |
| 2026-05-06 12:01 | 32.78249 | 30.98558 | 37089 ft | 458 kts | 181° |
| 2026-05-06 12:01 | 32.71899 | 30.99263 | 37097 ft | 458 kts | 181° |
| 2026-05-06 12:02 | 32.65593 | 30.99964 | 37105 ft | 458 kts | 181° |
| 2026-05-06 12:02 | 32.59243 | 31.00666 | 37094 ft | 458 kts | 181° |
| 2026-05-06 12:03 | 32.52900 | 31.01378 | 37105 ft | 457 kts | 181° |
| 2026-05-06 12:03 | 32.46567 | 31.02083 | 37109 ft | 457 kts | 181° |
| 2026-05-06 12:04 | 32.40238 | 31.02782 | 37115 ft | 457 kts | 181° |
| 2026-05-06 12:04 | 32.33907 | 31.03478 | 37100 ft | 457 kts | 181° |
| 2026-05-06 12:05 | 32.27580 | 31.04180 | 37110 ft | 456 kts | 181° |
| 2026-05-06 12:05 | 32.21259 | 31.04883 | 37123 ft | 456 kts | 181° |
| 2026-05-06 12:06 | 32.14945 | 31.05573 | 37113 ft | 456 kts | 181° |
| 2026-05-06 12:06 | 32.08630 | 31.06261 | 37110 ft | 455 kts | 181° |
| 2026-05-06 12:07 | 32.02329 | 31.06940 | 37115 ft | 455 kts | 181° |
| 2026-05-06 12:07 | 31.96033 | 31.07625 | 37114 ft | 454 kts | 181° |
| 2026-05-06 12:08 | 31.89739 | 31.08309 | 37118 ft | 454 kts | 181° |
| 2026-05-06 12:08 | 31.83447 | 31.08986 | 37117 ft | 454 kts | 181° |
| 2026-05-06 12:09 | 31.77159 | 31.09662 | 37113 ft | 454 kts | 181° |
| 2026-05-06 12:09 | 31.70864 | 31.10338 | 37115 ft | 454 kts | 181° |
| 2026-05-06 12:10 | 31.64574 | 31.11015 | 37086 ft | 454 kts | 181° |
| 2026-05-06 12:10 | 31.58286 | 31.11685 | 37104 ft | 453 kts | 181° |
| 2026-05-06 12:11 | 31.52005 | 31.12373 | 37108 ft | 454 kts | 180° |
| 2026-05-06 12:11 | 31.45727 | 31.13415 | 37109 ft | 457 kts | 177° |
| 2026-05-06 12:12 | 31.39451 | 31.14708 | 37089 ft | 458 kts | 176° |
| 2026-05-06 12:12 | 31.33179 | 31.15972 | 37103 ft | 457 kts | 177° |
| 2026-05-06 12:13 | 31.26901 | 31.17157 | 37112 ft | 457 kts | 178° |
| 2026-05-06 12:13 | 31.20623 | 31.18308 | 37107 ft | 456 kts | 178° |
| 2026-05-06 12:14 | 31.14350 | 31.19464 | 37081 ft | 456 kts | 178° |
| 2026-05-06 12:14 | 31.08127 | 31.20625 | 37090 ft | 456 kts | 178° |
| 2026-05-06 12:15 | 31.01867 | 31.21790 | 37092 ft | 456 kts | 178° |
| 2026-05-06 12:15 | 30.95605 | 31.22959 | 37094 ft | 455 kts | 178° |
| 2026-05-06 12:16 | 30.89347 | 31.24120 | 37071 ft | 455 kts | 178° |
| 2026-05-06 12:16 | 30.83097 | 31.25277 | 37071 ft | 454 kts | 178° |
| 2026-05-06 12:17 | 30.76858 | 31.26434 | 37079 ft | 454 kts | 178° |
| 2026-05-06 12:17 | 30.70618 | 31.27584 | 37083 ft | 454 kts | 178° |
| 2026-05-06 12:18 | 30.64377 | 31.28730 | 37067 ft | 454 kts | 178° |
| 2026-05-06 12:18 | 30.58141 | 31.29877 | 37075 ft | 454 kts | 178° |
| 2026-05-06 12:19 | 30.51903 | 31.31023 | 37081 ft | 454 kts | 178° |
| 2026-05-06 12:19 | 30.45668 | 31.32164 | 37083 ft | 453 kts | 178° |
| 2026-05-06 12:20 | 30.39436 | 31.33313 | 37085 ft | 453 kts | 178° |
| 2026-05-06 12:20 | 30.33210 | 31.34464 | 37062 ft | 453 kts | 178° |
| 2026-05-06 12:21 | 30.26982 | 31.35613 | 37071 ft | 453 kts | 178° |
| 2026-05-06 12:21 | 30.20754 | 31.36753 | 37081 ft | 453 kts | 178° |
| 2026-05-06 12:22 | 30.14523 | 31.37886 | 37087 ft | 453 kts | 178° |
| 2026-05-06 12:22 | 30.08301 | 31.39152 | 37077 ft | 459 kts | 171° |
| 2026-05-06 12:23 | 30.02156 | 31.41202 | 37080 ft | 460 kts | 171° |
| 2026-05-06 12:23 | 29.96011 | 31.43250 | 37082 ft | 460 kts | 171° |
| 2026-05-06 12:24 | 29.89861 | 31.45282 | 37085 ft | 460 kts | 171° |
| 2026-05-06 12:24 | 29.83705 | 31.47312 | 37069 ft | 460 kts | 171° |
| 2026-05-06 12:25 | 29.77735 | 31.49287 | 37074 ft | 460 kts | 171° |
| 2026-05-06 12:25 | 29.71537 | 31.51338 | 37084 ft | 460 kts | 171° |
| 2026-05-06 12:26 | 29.65422 | 31.53353 | 37087 ft | 460 kts | 171° |
| 2026-05-06 12:26 | 29.59268 | 31.55368 | 37074 ft | 460 kts | 171° |
| 2026-05-06 12:27 | 29.53115 | 31.57384 | 37082 ft | 460 kts | 171° |
| 2026-05-06 12:27 | 29.46962 | 31.59388 | 37091 ft | 460 kts | 171° |
| 2026-05-06 12:28 | 29.40808 | 31.61399 | 37096 ft | 460 kts | 171° |
| 2026-05-06 12:28 | 29.34653 | 31.63396 | 37100 ft | 460 kts | 171° |
| 2026-05-06 12:29 | 29.28495 | 31.65383 | 37103 ft | 460 kts | 171° |
| 2026-05-06 12:29 | 29.22342 | 31.67400 | 37102 ft | 460 kts | 171° |
| 2026-05-06 12:30 | 29.16188 | 31.69398 | 37100 ft | 460 kts | 171° |
| 2026-05-06 12:30 | 29.10033 | 31.71388 | 37102 ft | 460 kts | 171° |
| 2026-05-06 12:31 | 29.04919 | 31.73039 | 37075 ft | 460 kts | 171° |
| 2026-05-06 12:31 | 28.98765 | 31.75040 | 37072 ft | 460 kts | 171° |
| 2026-05-06 12:32 | 28.92612 | 31.77026 | 37073 ft | 459 kts | 171° |
| 2026-05-06 12:32 | 28.86451 | 31.78972 | 37076 ft | 459 kts | 171° |
| 2026-05-06 12:33 | 28.80291 | 31.80914 | 37080 ft | 459 kts | 171° |
| 2026-05-06 12:33 | 28.74130 | 31.82863 | 37059 ft | 459 kts | 171° |
| 2026-05-06 12:34 | 28.67978 | 31.84803 | 37069 ft | 459 kts | 171° |
| 2026-05-06 12:34 | 28.61821 | 31.86755 | 37076 ft | 459 kts | 171° |
| 2026-05-06 12:35 | 28.55664 | 31.88709 | 37082 ft | 459 kts | 171° |
| 2026-05-06 12:35 | 28.49513 | 31.90646 | 37054 ft | 459 kts | 171° |
| 2026-05-06 12:36 | 28.43355 | 31.92588 | 37059 ft | 459 kts | 171° |
| 2026-05-06 12:36 | 28.37198 | 31.94520 | 37067 ft | 459 kts | 171° |
| 2026-05-06 12:37 | 28.31040 | 31.96473 | 37067 ft | 459 kts | 171° |
| 2026-05-06 12:37 | 28.24878 | 31.98402 | 37071 ft | 459 kts | 171° |
| 2026-05-06 12:38 | 28.18719 | 32.00329 | 37051 ft | 459 kts | 171° |
| 2026-05-06 12:38 | 28.12561 | 32.02286 | 37059 ft | 459 kts | 171° |
| 2026-05-06 12:39 | 28.06398 | 32.04215 | 37061 ft | 459 kts | 171° |
| 2026-05-06 12:39 | 28.00236 | 32.06135 | 37064 ft | 459 kts | 171° |
| 2026-05-06 12:40 | 27.94083 | 32.08103 | 37026 ft | 460 kts | 171° |
| 2026-05-06 12:40 | 27.87933 | 32.10109 | 37039 ft | 460 kts | 171° |
| 2026-05-06 12:41 | 27.81782 | 32.12077 | 37038 ft | 459 kts | 171° |
| 2026-05-06 12:41 | 27.75626 | 32.14022 | 37042 ft | 459 kts | 171° |
| 2026-05-06 12:42 | 27.69517 | 32.15974 | 37042 ft | 459 kts | 171° |
| 2026-05-06 12:42 | 27.63327 | 32.17951 | 37026 ft | 459 kts | 171° |
| 2026-05-06 12:43 | 27.57180 | 32.19907 | 37006 ft | 459 kts | 171° |
| 2026-05-06 12:43 | 27.51028 | 32.21852 | 37011 ft | 459 kts | 171° |
| 2026-05-06 12:44 | 27.44921 | 32.23779 | 37015 ft | 459 kts | 171° |
| 2026-05-06 12:44 | 27.38778 | 32.25733 | 36982 ft | 459 kts | 171° |
| 2026-05-06 12:45 | 27.32634 | 32.27682 | 37005 ft | 458 kts | 171° |
| 2026-05-06 12:46 | 27.23426 | 32.30586 | 37009 ft | 458 kts | 171° |
| 2026-05-06 12:46 | 27.17287 | 32.32525 | 37011 ft | 458 kts | 171° |
| 2026-05-06 12:47 | 27.11148 | 32.34459 | 36989 ft | 458 kts | 172° |
| 2026-05-06 12:47 | 27.05019 | 32.36382 | 36995 ft | 457 kts | 172° |
| 2026-05-06 12:48 | 26.98898 | 32.38319 | 37015 ft | 457 kts | 171° |
| 2026-05-06 12:48 | 26.92783 | 32.40250 | 37007 ft | 456 kts | 172° |
| 2026-05-06 12:49 | 26.86673 | 32.42172 | 37006 ft | 456 kts | 172° |
| 2026-05-06 12:49 | 26.80560 | 32.44075 | 36998 ft | 456 kts | 172° |
| 2026-05-06 12:50 | 26.74450 | 32.45986 | 37006 ft | 456 kts | 172° |
| 2026-05-06 12:50 | 26.68344 | 32.47883 | 37008 ft | 455 kts | 172° |
| 2026-05-06 12:51 | 26.62239 | 32.49793 | 37005 ft | 456 kts | 172° |
| 2026-05-06 12:51 | 26.56138 | 32.51708 | 37000 ft | 455 kts | 172° |
| 2026-05-06 12:52 | 26.50035 | 32.53616 | 36999 ft | 455 kts | 172° |
| 2026-05-06 12:52 | 26.43931 | 32.55511 | 36996 ft | 455 kts | 172° |
| 2026-05-06 12:53 | 26.37829 | 32.57409 | 36997 ft | 455 kts | 172° |
| 2026-05-06 12:53 | 26.31733 | 32.59313 | 36994 ft | 455 kts | 172° |
| 2026-05-06 12:54 | 26.25637 | 32.61222 | 36971 ft | 455 kts | 172° |
| 2026-05-06 12:54 | 26.19543 | 32.63103 | 36979 ft | 454 kts | 172° |
| 2026-05-06 12:55 | 26.13495 | 32.64969 | 36996 ft | 454 kts | 172° |
| 2026-05-06 12:55 | 26.07416 | 32.66845 | 36992 ft | 453 kts | 172° |
| 2026-05-06 12:56 | 26.01338 | 32.68716 | 36953 ft | 453 kts | 172° |
| 2026-05-06 12:56 | 25.95263 | 32.70603 | 36977 ft | 453 kts | 172° |
| 2026-05-06 12:57 | 25.89200 | 32.72475 | 36982 ft | 452 kts | 172° |
| 2026-05-06 12:57 | 25.83141 | 32.74339 | 36982 ft | 452 kts | 172° |
| 2026-05-06 12:58 | 25.77201 | 32.76794 | 36669 ft | 467 kts | 156° |
| 2026-05-06 12:58 | 25.74521 | 32.78892 | 36417 ft | 477 kts | 145° |
| 2026-05-06 12:58 | 25.72186 | 32.81550 | 36008 ft | 488 kts | 134° |
| 2026-05-06 12:58 | 25.70212 | 32.84677 | 35069 ft | 499 kts | 128° |
| 2026-05-06 12:59 | 25.68304 | 32.87907 | 34360 ft | 500 kts | 127° |
| 2026-05-06 12:59 | 25.66410 | 32.91133 | 33724 ft | 498 kts | 127° |
| 2026-05-06 12:59 | 25.64521 | 32.94337 | 33088 ft | 496 kts | 127° |
| 2026-05-06 12:59 | 25.62632 | 32.97524 | 32453 ft | 493 kts | 127° |
| 2026-05-06 13:00 | 25.60746 | 33.00687 | 31826 ft | 491 kts | 127° |
| 2026-05-06 13:00 | 25.58861 | 33.03834 | 31209 ft | 489 kts | 126° |
| 2026-05-06 13:00 | 25.56981 | 33.06963 | 30583 ft | 487 kts | 126° |
| 2026-05-06 13:00 | 25.55108 | 33.10077 | 29965 ft | 485 kts | 126° |
| 2026-05-06 13:01 | 25.53267 | 33.13135 | 29328 ft | 482 kts | 126° |
| 2026-05-06 13:01 | 25.51419 | 33.16210 | 28738 ft | 477 kts | 126° |
| 2026-05-06 13:01 | 25.49594 | 33.19255 | 28174 ft | 473 kts | 126° |
| 2026-05-06 13:01 | 25.47788 | 33.22270 | 27671 ft | 467 kts | 126° |
| 2026-05-06 13:02 | 25.46000 | 33.25253 | 27104 ft | 463 kts | 126° |
| 2026-05-06 13:02 | 25.44230 | 33.28197 | 26589 ft | 458 kts | 126° |
| 2026-05-06 13:02 | 25.42472 | 33.31114 | 26148 ft | 452 kts | 126° |
| 2026-05-06 13:02 | 25.40738 | 33.33992 | 25536 ft | 450 kts | 126° |
| 2026-05-06 13:03 | 25.39029 | 33.36831 | 24960 ft | 437 kts | 126° |
| 2026-05-06 13:03 | 25.37370 | 33.39583 | 24415 ft | 423 kts | 126° |
| 2026-05-06 13:03 | 25.35761 | 33.42252 | 23901 ft | 410 kts | 126° |
| 2026-05-06 13:03 | 25.34199 | 33.44838 | 23351 ft | 399 kts | 126° |
| 2026-05-06 13:04 | 25.32849 | 33.47463 | 22832 ft | 388 kts | 115° |
| 2026-05-06 13:04 | 25.31995 | 33.50238 | 22374 ft | 377 kts | 104° |
| 2026-05-06 13:04 | 25.31635 | 33.53063 | 21927 ft | 369 kts | 92° |
| 2026-05-06 13:04 | 25.31670 | 33.55894 | 21485 ft | 368 kts | 89° |
| 2026-05-06 13:05 | 25.31739 | 33.58715 | 21041 ft | 366 kts | 89° |
| 2026-05-06 13:05 | 25.31800 | 33.61518 | 20604 ft | 364 kts | 89° |
| 2026-05-06 13:05 | 25.31860 | 33.64306 | 20166 ft | 362 kts | 89° |
| 2026-05-06 13:05 | 25.31919 | 33.67075 | 19732 ft | 359 kts | 89° |
| 2026-05-06 13:06 | 25.31978 | 33.69826 | 19305 ft | 357 kts | 89° |
| 2026-05-06 13:06 | 25.32035 | 33.72570 | 18873 ft | 358 kts | 90° |
| 2026-05-06 13:06 | 25.32092 | 33.75326 | 18441 ft | 360 kts | 90° |
| 2026-05-06 13:06 | 25.32151 | 33.78093 | 17979 ft | 361 kts | 90° |
| 2026-05-06 13:07 | 25.32211 | 33.80869 | 17516 ft | 361 kts | 90° |
| 2026-05-06 13:07 | 25.32269 | 33.83641 | 17097 ft | 361 kts | 90° |
| 2026-05-06 13:07 | 25.32327 | 33.86408 | 16670 ft | 360 kts | 90° |
| 2026-05-06 13:07 | 25.32387 | 33.89177 | 16243 ft | 360 kts | 90° |
| 2026-05-06 13:08 | 25.32447 | 33.91942 | 15820 ft | 360 kts | 90° |
| 2026-05-06 13:08 | 25.32506 | 33.94710 | 15395 ft | 360 kts | 90° |
| 2026-05-06 13:08 | 25.32564 | 33.97478 | 14973 ft | 360 kts | 90° |
| 2026-05-06 13:08 | 25.32617 | 34.00248 | 14545 ft | 361 kts | 90° |
| 2026-05-06 13:09 | 25.32670 | 34.03020 | 14112 ft | 361 kts | 90° |
| 2026-05-06 13:09 | 25.32722 | 34.05793 | 13670 ft | 361 kts | 90° |
| 2026-05-06 13:09 | 25.32775 | 34.08566 | 13212 ft | 360 kts | 90° |
| 2026-05-06 13:09 | 25.32829 | 34.11330 | 12772 ft | 358 kts | 90° |
| 2026-05-06 13:10 | 25.32881 | 34.14074 | 12331 ft | 357 kts | 90° |
| 2026-05-06 13:10 | 25.32934 | 34.16811 | 11890 ft | 355 kts | 90° |
| 2026-05-06 13:10 | 25.32986 | 34.19534 | 11447 ft | 354 kts | 90° |
| 2026-05-06 13:10 | 25.33037 | 34.22247 | 10998 ft | 353 kts | 90° |
| 2026-05-06 13:11 | 25.33087 | 34.24953 | 10547 ft | 352 kts | 90° |
| 2026-05-06 13:11 | 25.33135 | 34.27652 | 10098 ft | 351 kts | 90° |
| 2026-05-06 13:11 | 25.33182 | 34.30310 | 9935 ft | 340 kts | 90° |
| 2026-05-06 13:11 | 25.33230 | 34.32872 | 9812 ft | 328 kts | 90° |
| 2026-05-06 13:12 | 25.33275 | 34.35357 | 9544 ft | 321 kts | 90° |
| 2026-05-06 13:12 | 25.33316 | 34.37808 | 8897 ft | 317 kts | 90° |
| 2026-05-06 13:12 | 25.33357 | 34.40224 | 8276 ft | 312 kts | 90° |
| 2026-05-06 13:12 | 25.33400 | 34.42594 | 7895 ft | 307 kts | 90° |
| 2026-05-06 13:13 | 25.33440 | 34.44947 | 7499 ft | 305 kts | 90° |
| 2026-05-06 13:13 | 25.33478 | 34.47279 | 7093 ft | 302 kts | 89° |
| 2026-05-06 13:13 | 25.33514 | 34.49612 | 6688 ft | 303 kts | 89° |
| 2026-05-06 13:13 | 25.33552 | 34.51938 | 6279 ft | 303 kts | 89° |
| 2026-05-06 13:14 | 25.33591 | 34.54259 | 5858 ft | 301 kts | 89° |
| 2026-05-06 13:14 | 25.33684 | 34.56559 | 5451 ft | 298 kts | 81° |
| 2026-05-06 13:14 | 25.34269 | 34.58736 | 5049 ft | 294 kts | 62° |
| 2026-05-06 13:14 | 25.35273 | 34.60692 | 4633 ft | 292 kts | 57° |
| 2026-05-06 13:15 | 25.36309 | 34.62627 | 4192 ft | 292 kts | 56° |
| 2026-05-06 13:15 | 25.37333 | 34.64548 | 3805 ft | 288 kts | 57° |
| 2026-05-06 13:15 | 25.38353 | 34.66440 | 3403 ft | 284 kts | 52° |
| 2026-05-06 13:15 | 25.39789 | 34.67806 | 3010 ft | 268 kts | 17° |
| 2026-05-06 13:16 | 25.41552 | 34.67981 | 2768 ft | 250 kts | 344° |
| 2026-05-06 13:16 | 25.43098 | 34.67244 | 2577 ft | 236 kts | 329° |
| 2026-05-06 13:16 | 25.44408 | 34.66277 | 2378 ft | 216 kts | 326° |
| 2026-05-06 13:16 | 25.45135 | 34.65595 | 2328 ft | 201 kts | 316° |
| 2026-05-06 13:17 | 25.46145 | 34.64621 | 2124 ft | 187 kts | 326° |
| 2026-05-06 13:17 | 25.47212 | 34.63851 | 1873 ft | 182 kts | 329° |
| 2026-05-06 13:17 | 25.48259 | 34.63157 | 1743 ft | 168 kts | 332° |
| 2026-05-06 13:17 | 25.49219 | 34.62531 | 1495 ft | 151 kts | 331° |
| 2026-05-06 13:18 | 25.50088 | 34.61974 | 1257 ft | 138 kts | 332° |
| 2026-05-06 13:18 | 25.50897 | 34.61454 | 1072 ft | 132 kts | 333° |
| 2026-05-06 13:18 | 25.51692 | 34.60946 | 918 ft | 131 kts | 335° |
| 2026-05-06 13:18 | 25.52480 | 34.60442 | 724 ft | 131 kts | 335° |
| 2026-05-06 13:19 | 25.53270 | 34.59933 | 550 ft | 131 kts | 335° |
| 2026-05-06 13:19 | 25.54060 | 34.59431 | 409 ft | 130 kts | 335° |
| 2026-05-06 13:19 | 25.54831 | 34.58931 | 271 ft | 127 kts | 334° |
| 2026-05-06 13:19 | 25.55493 | 34.58516 | 251 ft | 85 kts | 330° |
| 2026-05-06 13:20 | 25.55867 | 34.58277 | 256 ft | 44 kts | 330° |
| 2026-05-06 13:20 | 25.56069 | 34.58173 | 255 ft | 22 kts | 5° |
| 2026-05-06 13:20 | 25.56086 | 34.58133 | 255 ft | 12 kts | 168° |
| 2026-05-06 13:20 | 25.56016 | 34.58180 | 255 ft | 13 kts | 148° |
| 2026-05-06 13:21 | 25.55922 | 34.58244 | 256 ft | 19 kts | 148° |
| 2026-05-06 13:21 | 25.55800 | 34.58341 | 255 ft | 24 kts | 122° |
| 2026-05-06 13:21 | 25.55832 | 34.58503 | 255 ft | 23 kts | 60° |
| 2026-05-06 13:21 | 25.55914 | 34.58656 | 255 ft | 23 kts | 60° |
| 2026-05-06 13:22 | 25.55975 | 34.58801 | 255 ft | 17 kts | 99° |
| 2026-05-06 13:22 | 25.55941 | 34.58938 | 255 ft | 19 kts | 115° |
| 2026-05-06 13:22 | 25.55839 | 34.59005 | 254 ft | 16 kts | 163° |
| 2026-05-06 13:22 | 25.55735 | 34.58994 | 254 ft | 19 kts | 186° |
| 2026-05-06 13:23 | 25.55617 | 34.58944 | 254 ft | 17 kts | 247° |
| 2026-05-06 13:23 | 25.55684 | 34.58888 | 254 ft | 15 kts | 34° |
| 2026-05-06 13:23 | 25.55713 | 34.58937 | 254 ft | 0 kts | 59° |